sensor_id;sensor_type;location;lat;lon;timestamp;P1;durP1;ratioP1;P2;durP2;ratioP2
77701;SDS011;66868;42.708;23.404;2023-03-23T00:01:59;49.20;;;29.77;;
77701;SDS011;66868;42.708;23.404;2023-03-23T00:04:24;52.40;;;29.97;;
77701;SDS011;66868;42.708;23.404;2023-03-23T00:06:51;50.03;;;28.90;;
77701;SDS011;66868;42.708;23.404;2023-03-23T00:09:17;54.97;;;28.67;;
77701;SDS011;66868;42.708;23.404;2023-03-23T00:11:48;56.37;;;29.20;;
77701;SDS011;66868;42.708;23.404;2023-03-23T00:14:15;51.93;;;30.73;;
77701;SDS011;66868;42.708;23.404;2023-03-23T00:16:41;55.50;;;30.87;;
77701;SDS011;66868;42.708;23.404;2023-03-23T00:19:08;53.90;;;30.17;;
77701;SDS011;66868;42.708;23.404;2023-03-23T00:21:38;50.80;;;30.57;;
77701;SDS011;66868;42.708;23.404;2023-03-23T00:24:08;53.10;;;30.33;;
77701;SDS011;66868;42.708;23.404;2023-03-23T00:26:36;51.23;;;28.80;;
77701;SDS011;66868;42.708;23.404;2023-03-23T00:29:05;47.65;;;27.63;;
77701;SDS011;66868;42.708;23.404;2023-03-23T00:31:58;53.45;;;27.98;;
77701;SDS011;66868;42.708;23.404;2023-03-23T00:34:23;50.23;;;28.97;;
77701;SDS011;66868;42.708;23.404;2023-03-23T00:36:51;56.17;;;30.97;;
77701;SDS011;66868;42.708;23.404;2023-03-23T00:39:21;49.20;;;29.52;;
77701;SDS011;66868;42.708;23.404;2023-03-23T00:41:49;52.97;;;30.23;;
77701;SDS011;66868;42.708;23.404;2023-03-23T00:44:15;52.40;;;29.80;;
77701;SDS011;66868;42.708;23.404;2023-03-23T00:46:44;46.03;;;26.93;;
77701;SDS011;66868;42.708;23.404;2023-03-23T00:49:15;38.87;;;23.30;;
77701;SDS011;66868;42.708;23.404;2023-03-23T00:51:42;41.13;;;24.43;;
77701;SDS011;66868;42.708;23.404;2023-03-23T00:54:09;41.73;;;25.77;;
77701;SDS011;66868;42.708;23.404;2023-03-23T00:56:38;42.93;;;26.53;;
77701;SDS011;66868;42.708;23.404;2023-03-23T00:59:07;46.67;;;26.60;;
77701;SDS011;66868;42.708;23.404;2023-03-23T01:01:32;47.43;;;26.40;;
77701;SDS011;66868;42.708;23.404;2023-03-23T01:03:59;43.07;;;24.87;;
77701;SDS011;66868;42.708;23.404;2023-03-23T01:06:29;33.83;;;21.73;;
77701;SDS011;66868;42.708;23.404;2023-03-23T01:08:56;42.93;;;24.50;;
77701;SDS011;66868;42.708;23.404;2023-03-23T01:11:22;34.87;;;22.50;;
77701;SDS011;66868;42.708;23.404;2023-03-23T01:13:49;36.20;;;23.10;;
77701;SDS011;66868;42.708;23.404;2023-03-23T01:16:15;45.27;;;25.03;;
77701;SDS011;66868;42.708;23.404;2023-03-23T01:18:40;41.00;;;23.27;;
77701;SDS011;66868;42.708;23.404;2023-03-23T01:21:15;39.97;;;24.23;;
77701;SDS011;66868;42.708;23.404;2023-03-23T01:23:42;37.87;;;23.97;;
77701;SDS011;66868;42.708;23.404;2023-03-23T01:26:26;38.70;;;24.37;;
77701;SDS011;66868;42.708;23.404;2023-03-23T01:28:52;43.73;;;26.47;;
77701;SDS011;66868;42.708;23.404;2023-03-23T01:31:19;81.73;;;30.40;;
77701;SDS011;66868;42.708;23.404;2023-03-23T01:33:47;113.00;;;30.07;;
77701;SDS011;66868;42.708;23.404;2023-03-23T01:36:14;83.97;;;30.00;;
77701;SDS011;66868;42.708;23.404;2023-03-23T01:38:41;89.60;;;32.60;;
77701;SDS011;66868;42.708;23.404;2023-03-23T01:41:09;83.80;;;32.73;;
77701;SDS011;66868;42.708;23.404;2023-03-23T01:43:35;65.33;;;33.87;;
77701;SDS011;66868;42.708;23.404;2023-03-23T01:46:01;90.13;;;38.03;;
77701;SDS011;66868;42.708;23.404;2023-03-23T01:48:31;79.17;;;36.40;;
77701;SDS011;66868;42.708;23.404;2023-03-23T01:53:30;71.37;;;36.10;;
77701;SDS011;66868;42.708;23.404;2023-03-23T01:56:02;70.47;;;38.20;;
77701;SDS011;66868;42.708;23.404;2023-03-23T01:58:29;71.07;;;35.43;;
77701;SDS011;66868;42.708;23.404;2023-03-23T02:00:57;68.87;;;34.73;;
77701;SDS011;66868;42.708;23.404;2023-03-23T02:03:26;75.77;;;36.83;;
77701;SDS011;66868;42.708;23.404;2023-03-23T02:05:53;63.20;;;35.07;;
77701;SDS011;66868;42.708;23.404;2023-03-23T02:08:23;78.07;;;36.20;;
77701;SDS011;66868;42.708;23.404;2023-03-23T02:10:51;71.57;;;36.93;;
77701;SDS011;66868;42.708;23.404;2023-03-23T02:13:17;84.07;;;37.67;;
77701;SDS011;66868;42.708;23.404;2023-03-23T02:18:46;73.00;;;33.07;;
77701;SDS011;66868;42.708;23.404;2023-03-23T02:27:28;48.73;;;26.90;;
77701;SDS011;66868;42.708;23.404;2023-03-23T02:30:42;39.33;;;23.40;;
77701;SDS011;66868;42.708;23.404;2023-03-23T02:35:39;35.57;;;20.93;;
77701;SDS011;66868;42.708;23.404;2023-03-23T02:41:37;33.47;;;18.20;;
77701;SDS011;66868;42.708;23.404;2023-03-23T02:44:07;35.33;;;19.57;;
77701;SDS011;66868;42.708;23.404;2023-03-23T02:46:34;33.27;;;19.63;;
77701;SDS011;66868;42.708;23.404;2023-03-23T02:49:01;88.07;;;19.70;;
77701;SDS011;66868;42.708;23.404;2023-03-23T02:51:30;92.80;;;20.60;;
77701;SDS011;66868;42.708;23.404;2023-03-23T02:53:58;35.57;;;19.73;;
77701;SDS011;66868;42.708;23.404;2023-03-23T02:56:25;45.23;;;19.77;;
77701;SDS011;66868;42.708;23.404;2023-03-23T02:58:54;43.60;;;20.43;;
77701;SDS011;66868;42.708;23.404;2023-03-23T03:03:51;37.07;;;18.57;;
77701;SDS011;66868;42.708;23.404;2023-03-23T03:06:24;32.80;;;19.57;;
77701;SDS011;66868;42.708;23.404;2023-03-23T03:11:42;41.53;;;20.23;;
77701;SDS011;66868;42.708;23.404;2023-03-23T03:14:31;36.73;;;19.90;;
77701;SDS011;66868;42.708;23.404;2023-03-23T03:17:19;33.90;;;19.67;;
77701;SDS011;66868;42.708;23.404;2023-03-23T03:19:50;29.73;;;18.73;;
77701;SDS011;66868;42.708;23.404;2023-03-23T03:22:22;36.43;;;18.37;;
77701;SDS011;66868;42.708;23.404;2023-03-23T03:24:48;44.93;;;18.60;;
77701;SDS011;66868;42.708;23.404;2023-03-23T03:27:17;47.97;;;19.37;;
77701;SDS011;66868;42.708;23.404;2023-03-23T03:29:46;39.17;;;17.50;;
77701;SDS011;66868;42.708;23.404;2023-03-23T03:32:16;31.67;;;16.97;;
77701;SDS011;66868;42.708;23.404;2023-03-23T03:34:47;73.03;;;18.10;;
77701;SDS011;66868;42.708;23.404;2023-03-23T03:37:15;43.63;;;17.33;;
77701;SDS011;66868;42.708;23.404;2023-03-23T03:39:42;40.30;;;17.87;;
77701;SDS011;66868;42.708;23.404;2023-03-23T03:42:08;27.53;;;17.47;;
77701;SDS011;66868;42.708;23.404;2023-03-23T03:44:33;31.37;;;17.73;;
77701;SDS011;66868;42.708;23.404;2023-03-23T03:46:59;31.13;;;18.23;;
77701;SDS011;66868;42.708;23.404;2023-03-23T03:49:25;29.77;;;18.00;;
77701;SDS011;66868;42.708;23.404;2023-03-23T03:51:51;40.37;;;17.80;;
77701;SDS011;66868;42.708;23.404;2023-03-23T03:54:17;29.77;;;16.30;;
77701;SDS011;66868;42.708;23.404;2023-03-23T03:56:42;66.03;;;17.50;;
77701;SDS011;66868;42.708;23.404;2023-03-23T03:59:08;44.35;;;18.25;;
77701;SDS011;66868;42.708;23.404;2023-03-23T04:01:37;49.43;;;18.23;;
77701;SDS011;66868;42.708;23.404;2023-03-23T04:04:03;45.30;;;19.03;;
77701;SDS011;66868;42.708;23.404;2023-03-23T04:06:31;50.60;;;18.83;;
77701;SDS011;66868;42.708;23.404;2023-03-23T04:09:01;45.83;;;19.57;;
77701;SDS011;66868;42.708;23.404;2023-03-23T04:11:30;53.00;;;21.13;;
77701;SDS011;66868;42.708;23.404;2023-03-23T04:13:56;37.67;;;21.23;;
77701;SDS011;66868;42.708;23.404;2023-03-23T04:16:22;42.55;;;20.88;;
77701;SDS011;66868;42.708;23.404;2023-03-23T04:18:47;72.70;;;21.73;;
77701;SDS011;66868;42.708;23.404;2023-03-23T04:21:13;33.00;;;19.83;;
77701;SDS011;66868;42.708;23.404;2023-03-23T04:23:39;55.23;;;22.03;;
77701;SDS011;66868;42.708;23.404;2023-03-23T04:26:05;39.87;;;21.00;;
77701;SDS011;66868;42.708;23.404;2023-03-23T04:28:31;37.43;;;21.67;;
77701;SDS011;66868;42.708;23.404;2023-03-23T04:30:58;42.50;;;21.93;;
77701;SDS011;66868;42.708;23.404;2023-03-23T04:33:25;39.10;;;22.73;;
77701;SDS011;66868;42.708;23.404;2023-03-23T04:35:53;46.43;;;23.87;;
77701;SDS011;66868;42.708;23.404;2023-03-23T04:38:22;39.00;;;21.97;;
77701;SDS011;66868;42.708;23.404;2023-03-23T04:40:48;42.03;;;22.37;;
77701;SDS011;66868;42.708;23.404;2023-03-23T04:43:18;37.57;;;21.23;;
77701;SDS011;66868;42.708;23.404;2023-03-23T04:45:46;41.73;;;21.73;;
77701;SDS011;66868;42.708;23.404;2023-03-23T04:48:16;36.77;;;20.40;;
77701;SDS011;66868;42.708;23.404;2023-03-23T04:50:42;39.63;;;21.67;;
77701;SDS011;66868;42.708;23.404;2023-03-23T04:53:08;41.17;;;22.47;;
77701;SDS011;66868;42.708;23.404;2023-03-23T04:55:35;55.87;;;27.77;;
77701;SDS011;66868;42.708;23.404;2023-03-23T04:58:05;55.53;;;27.97;;
77701;SDS011;66868;42.708;23.404;2023-03-23T05:00:32;39.83;;;22.50;;
77701;SDS011;66868;42.708;23.404;2023-03-23T05:02:58;46.00;;;22.77;;
77701;SDS011;66868;42.708;23.404;2023-03-23T05:05:24;42.07;;;22.70;;
77701;SDS011;66868;42.708;23.404;2023-03-23T05:07:50;35.70;;;20.63;;
77701;SDS011;66868;42.708;23.404;2023-03-23T05:10:16;35.93;;;20.83;;
77701;SDS011;66868;42.708;23.404;2023-03-23T05:12:42;32.30;;;20.27;;
77701;SDS011;66868;42.708;23.404;2023-03-23T05:15:08;34.70;;;21.10;;
77701;SDS011;66868;42.708;23.404;2023-03-23T05:17:35;37.30;;;21.67;;
77701;SDS011;66868;42.708;23.404;2023-03-23T05:20:01;32.77;;;20.27;;
77701;SDS011;66868;42.708;23.404;2023-03-23T05:22:34;33.47;;;19.67;;
77701;SDS011;66868;42.708;23.404;2023-03-23T05:24:59;35.47;;;21.40;;
77701;SDS011;66868;42.708;23.404;2023-03-23T05:27:27;40.23;;;22.40;;
77701;SDS011;66868;42.708;23.404;2023-03-23T05:29:55;41.37;;;22.83;;
77701;SDS011;66868;42.708;23.404;2023-03-23T05:32:23;37.47;;;21.73;;
77701;SDS011;66868;42.708;23.404;2023-03-23T05:34:53;41.37;;;22.80;;
77701;SDS011;66868;42.708;23.404;2023-03-23T05:37:23;36.23;;;21.37;;
77701;SDS011;66868;42.708;23.404;2023-03-23T05:39:50;41.57;;;24.07;;
77701;SDS011;66868;42.708;23.404;2023-03-23T05:42:19;34.90;;;22.93;;
77701;SDS011;66868;42.708;23.404;2023-03-23T05:44:45;43.13;;;24.90;;
77701;SDS011;66868;42.708;23.404;2023-03-23T05:47:11;40.57;;;23.77;;
77701;SDS011;66868;42.708;23.404;2023-03-23T05:49:37;50.57;;;25.97;;
77701;SDS011;66868;42.708;23.404;2023-03-23T05:52:03;40.70;;;24.00;;
77701;SDS011;66868;42.708;23.404;2023-03-23T05:54:28;44.03;;;26.83;;
77701;SDS011;66868;42.708;23.404;2023-03-23T05:56:54;47.33;;;25.57;;
77701;SDS011;66868;42.708;23.404;2023-03-23T05:59:19;37.10;;;22.23;;
77701;SDS011;66868;42.708;23.404;2023-03-23T06:01:45;38.23;;;23.63;;
77701;SDS011;66868;42.708;23.404;2023-03-23T06:04:10;42.00;;;25.70;;
77701;SDS011;66868;42.708;23.404;2023-03-23T06:06:38;43.60;;;27.00;;
77701;SDS011;66868;42.708;23.404;2023-03-23T06:09:04;47.20;;;25.63;;
77701;SDS011;66868;42.708;23.404;2023-03-23T06:11:30;51.53;;;25.30;;
77701;SDS011;66868;42.708;23.404;2023-03-23T06:13:55;39.67;;;25.60;;
77701;SDS011;66868;42.708;23.404;2023-03-23T06:16:20;39.33;;;22.70;;
77701;SDS011;66868;42.708;23.404;2023-03-23T06:18:46;43.57;;;26.73;;
77701;SDS011;66868;42.708;23.404;2023-03-23T06:21:13;39.43;;;24.73;;
77701;SDS011;66868;42.708;23.404;2023-03-23T06:23:39;44.07;;;24.77;;
77701;SDS011;66868;42.708;23.404;2023-03-23T06:26:05;45.83;;;26.37;;
77701;SDS011;66868;42.708;23.404;2023-03-23T06:28:33;47.80;;;25.17;;
77701;SDS011;66868;42.708;23.404;2023-03-23T06:31:00;39.83;;;24.60;;
77701;SDS011;66868;42.708;23.404;2023-03-23T06:33:34;44.70;;;24.80;;
77701;SDS011;66868;42.708;23.404;2023-03-23T06:36:01;42.23;;;25.40;;
77701;SDS011;66868;42.708;23.404;2023-03-23T06:38:27;38.40;;;24.00;;
77701;SDS011;66868;42.708;23.404;2023-03-23T06:40:53;36.87;;;22.37;;
77701;SDS011;66868;42.708;23.404;2023-03-23T06:43:19;36.47;;;22.10;;
77701;SDS011;66868;42.708;23.404;2023-03-23T06:45:44;35.38;;;22.17;;
77701;SDS011;66868;42.708;23.404;2023-03-23T06:48:10;33.10;;;20.95;;
77701;SDS011;66868;42.708;23.404;2023-03-23T06:50:35;33.73;;;21.30;;
77701;SDS011;66868;42.708;23.404;2023-03-23T06:53:01;35.28;;;21.02;;
77701;SDS011;66868;42.708;23.404;2023-03-23T06:55:26;42.45;;;21.88;;
77701;SDS011;66868;42.708;23.404;2023-03-23T06:57:52;36.35;;;22.65;;
77701;SDS011;66868;42.708;23.404;2023-03-23T07:00:17;33.75;;;20.73;;
77701;SDS011;66868;42.708;23.404;2023-03-23T07:02:43;36.17;;;21.92;;
77701;SDS011;66868;42.708;23.404;2023-03-23T07:05:09;33.10;;;20.60;;
77701;SDS011;66868;42.708;23.404;2023-03-23T07:07:36;36.20;;;21.77;;
77701;SDS011;66868;42.708;23.404;2023-03-23T07:10:04;37.65;;;21.60;;
77701;SDS011;66868;42.708;23.404;2023-03-23T07:12:30;39.17;;;22.80;;
77701;SDS011;66868;42.708;23.404;2023-03-23T07:14:56;35.15;;;22.55;;
77701;SDS011;66868;42.708;23.404;2023-03-23T07:17:21;37.55;;;22.00;;
77701;SDS011;66868;42.708;23.404;2023-03-23T07:19:47;37.53;;;23.55;;
77701;SDS011;66868;42.708;23.404;2023-03-23T07:22:12;36.35;;;22.63;;
77701;SDS011;66868;42.708;23.404;2023-03-23T07:24:38;37.85;;;23.13;;
77701;SDS011;66868;42.708;23.404;2023-03-23T07:27:03;34.15;;;22.25;;
77701;SDS011;66868;42.708;23.404;2023-03-23T07:29:36;36.78;;;21.55;;
77701;SDS011;66868;42.708;23.404;2023-03-23T07:32:03;36.67;;;24.02;;
77701;SDS011;66868;42.708;23.404;2023-03-23T07:34:30;35.65;;;22.77;;
77701;SDS011;66868;42.708;23.404;2023-03-23T07:36:56;36.40;;;22.25;;
77701;SDS011;66868;42.708;23.404;2023-03-23T07:39:22;40.53;;;24.67;;
77701;SDS011;66868;42.708;23.404;2023-03-23T07:41:49;39.13;;;24.20;;
77701;SDS011;66868;42.708;23.404;2023-03-23T07:44:14;39.92;;;25.40;;
77701;SDS011;66868;42.708;23.404;2023-03-23T07:46:40;39.17;;;24.73;;
77701;SDS011;66868;42.708;23.404;2023-03-23T07:49:07;35.95;;;22.55;;
77701;SDS011;66868;42.708;23.404;2023-03-23T07:51:33;35.92;;;22.67;;
77701;SDS011;66868;42.708;23.404;2023-03-23T07:53:59;38.75;;;24.05;;
77701;SDS011;66868;42.708;23.404;2023-03-23T07:56:24;34.53;;;22.75;;
77701;SDS011;66868;42.708;23.404;2023-03-23T07:58:51;36.97;;;22.88;;
77701;SDS011;66868;42.708;23.404;2023-03-23T08:01:16;38.22;;;23.23;;
77701;SDS011;66868;42.708;23.404;2023-03-23T08:03:42;40.47;;;23.38;;
77701;SDS011;66868;42.708;23.404;2023-03-23T08:06:07;40.92;;;21.50;;
77701;SDS011;66868;42.708;23.404;2023-03-23T08:08:34;34.47;;;20.48;;
77701;SDS011;66868;42.708;23.404;2023-03-23T08:11:00;32.47;;;20.67;;
77701;SDS011;66868;42.708;23.404;2023-03-23T08:13:26;40.40;;;22.42;;
77701;SDS011;66868;42.708;23.404;2023-03-23T08:15:51;38.20;;;21.88;;
77701;SDS011;66868;42.708;23.404;2023-03-23T08:18:17;34.67;;;21.67;;
77701;SDS011;66868;42.708;23.404;2023-03-23T08:20:43;30.27;;;20.55;;
77701;SDS011;66868;42.708;23.404;2023-03-23T08:23:09;36.97;;;21.08;;
77701;SDS011;66868;42.708;23.404;2023-03-23T08:25:35;37.65;;;21.85;;
77701;SDS011;66868;42.708;23.404;2023-03-23T08:28:02;35.10;;;21.25;;
77701;SDS011;66868;42.708;23.404;2023-03-23T08:30:28;32.40;;;20.95;;
77701;SDS011;66868;42.708;23.404;2023-03-23T08:32:55;36.55;;;20.02;;
77701;SDS011;66868;42.708;23.404;2023-03-23T08:35:22;34.63;;;20.33;;
77701;SDS011;66868;42.708;23.404;2023-03-23T08:37:48;32.05;;;18.63;;
77701;SDS011;66868;42.708;23.404;2023-03-23T08:40:18;29.17;;;18.48;;
77701;SDS011;66868;42.708;23.404;2023-03-23T08:42:45;24.35;;;17.42;;
77701;SDS011;66868;42.708;23.404;2023-03-23T08:45:14;28.33;;;17.60;;
77701;SDS011;66868;42.708;23.404;2023-03-23T08:47:42;31.63;;;18.98;;
77701;SDS011;66868;42.708;23.404;2023-03-23T08:50:10;24.73;;;16.90;;
77701;SDS011;66868;42.708;23.404;2023-03-23T08:52:38;27.52;;;16.17;;
77701;SDS011;66868;42.708;23.404;2023-03-23T08:55:04;20.20;;;15.63;;
77701;SDS011;66868;42.708;23.404;2023-03-23T08:57:30;26.35;;;16.95;;
77701;SDS011;66868;42.708;23.404;2023-03-23T08:59:56;25.75;;;16.10;;
77701;SDS011;66868;42.708;23.404;2023-03-23T09:02:25;20.55;;;15.38;;
77701;SDS011;66868;42.708;23.404;2023-03-23T09:04:52;19.60;;;14.90;;
77701;SDS011;66868;42.708;23.404;2023-03-23T09:07:18;19.35;;;15.30;;
77701;SDS011;66868;42.708;23.404;2023-03-23T09:09:43;21.52;;;15.00;;
77701;SDS011;66868;42.708;23.404;2023-03-23T09:12:09;21.90;;;15.23;;
77701;SDS011;66868;42.708;23.404;2023-03-23T09:14:36;20.02;;;14.90;;
77701;SDS011;66868;42.708;23.404;2023-03-23T09:17:02;22.55;;;16.42;;
77701;SDS011;66868;42.708;23.404;2023-03-23T09:19:28;19.58;;;13.45;;
77701;SDS011;66868;42.708;23.404;2023-03-23T09:21:55;20.25;;;13.15;;
77701;SDS011;66868;42.708;23.404;2023-03-23T09:24:21;23.40;;;14.55;;
77701;SDS011;66868;42.708;23.404;2023-03-23T09:26:47;15.77;;;12.68;;
77701;SDS011;66868;42.708;23.404;2023-03-23T09:29:12;10.48;;;9.35;;
77701;SDS011;66868;42.708;23.404;2023-03-23T09:31:38;8.63;;;7.82;;
77701;SDS011;66868;42.708;23.404;2023-03-23T09:34:06;8.00;;;7.30;;
77701;SDS011;66868;42.708;23.404;2023-03-23T09:36:34;14.10;;;8.15;;
77701;SDS011;66868;42.708;23.404;2023-03-23T09:39:01;11.02;;;7.65;;
77701;SDS011;66868;42.708;23.404;2023-03-23T09:44:25;11.48;;;8.75;;
77701;SDS011;66868;42.708;23.404;2023-03-23T09:47:20;12.20;;;9.38;;
77701;SDS011;66868;42.708;23.404;2023-03-23T09:49:53;11.38;;;8.68;;
77701;SDS011;66868;42.708;23.404;2023-03-23T09:52:22;7.13;;;6.55;;
77701;SDS011;66868;42.708;23.404;2023-03-23T09:55:04;9.30;;;8.38;;
77701;SDS011;66868;42.708;23.404;2023-03-23T09:57:37;16.33;;;10.55;;
77701;SDS011;66868;42.708;23.404;2023-03-23T10:02:46;12.02;;;10.27;;
77701;SDS011;66868;42.708;23.404;2023-03-23T10:08:05;8.82;;;7.93;;
77701;SDS011;66868;42.708;23.404;2023-03-23T10:10:49;8.50;;;7.63;;
77701;SDS011;66868;42.708;23.404;2023-03-23T10:13:23;8.68;;;7.78;;
77701;SDS011;66868;42.708;23.404;2023-03-23T10:15:59;9.05;;;7.45;;
77701;SDS011;66868;42.708;23.404;2023-03-23T10:18:37;9.85;;;7.28;;
77701;SDS011;66868;42.708;23.404;2023-03-23T10:21:11;7.57;;;6.75;;
77701;SDS011;66868;42.708;23.404;2023-03-23T10:26:26;10.40;;;7.32;;
77701;SDS011;66868;42.708;23.404;2023-03-23T10:28:59;8.60;;;7.15;;
77701;SDS011;66868;42.708;23.404;2023-03-23T10:37:21;8.93;;;7.22;;
77701;SDS011;66868;42.708;23.404;2023-03-23T10:39:54;7.95;;;7.35;;
77701;SDS011;66868;42.708;23.404;2023-03-23T10:42:25;7.55;;;6.95;;
77701;SDS011;66868;42.708;23.404;2023-03-23T10:45:20;7.85;;;7.07;;
77701;SDS011;66868;42.708;23.404;2023-03-23T10:47:58;10.73;;;7.28;;
77701;SDS011;66868;42.708;23.404;2023-03-23T10:50:40;11.80;;;7.00;;
77701;SDS011;66868;42.708;23.404;2023-03-23T10:53:14;19.63;;;7.32;;
77701;SDS011;66868;42.708;23.404;2023-03-23T10:56:00;9.38;;;6.88;;
77701;SDS011;66868;42.708;23.404;2023-03-23T10:58:32;9.05;;;6.85;;
77701;SDS011;66868;42.708;23.404;2023-03-23T11:01:00;6.65;;;6.15;;
77701;SDS011;66868;42.708;23.404;2023-03-23T11:03:33;6.97;;;6.38;;
77701;SDS011;66868;42.708;23.404;2023-03-23T11:06:08;7.55;;;6.88;;
77701;SDS011;66868;42.708;23.404;2023-03-23T11:08:48;6.93;;;6.32;;
77701;SDS011;66868;42.708;23.404;2023-03-23T11:11:29;6.13;;;5.70;;
77701;SDS011;66868;42.708;23.404;2023-03-23T11:13:57;7.28;;;6.45;;
77701;SDS011;66868;42.708;23.404;2023-03-23T11:16:44;7.22;;;6.72;;
77701;SDS011;66868;42.708;23.404;2023-03-23T11:19:38;6.78;;;6.28;;
77701;SDS011;66868;42.708;23.404;2023-03-23T11:24:43;7.03;;;6.22;;
77701;SDS011;66868;42.708;23.404;2023-03-23T11:27:11;6.25;;;5.50;;
77701;SDS011;66868;42.708;23.404;2023-03-23T11:32:18;6.15;;;5.65;;
77701;SDS011;66868;42.708;23.404;2023-03-23T11:34:49;5.35;;;4.88;;
77701;SDS011;66868;42.708;23.404;2023-03-23T11:37:42;6.50;;;5.90;;
77701;SDS011;66868;42.708;23.404;2023-03-23T11:40:16;6.30;;;5.15;;
77701;SDS011;66868;42.708;23.404;2023-03-23T11:42:48;5.88;;;5.38;;
77701;SDS011;66868;42.708;23.404;2023-03-23T11:45:24;16.45;;;6.07;;
77701;SDS011;66868;42.708;23.404;2023-03-23T11:48:01;7.63;;;5.45;;
77701;SDS011;66868;42.708;23.404;2023-03-23T11:50:50;5.88;;;5.47;;
77701;SDS011;66868;42.708;23.404;2023-03-23T11:53:23;5.97;;;5.57;;
77701;SDS011;66868;42.708;23.404;2023-03-23T11:58:36;6.18;;;5.65;;
77701;SDS011;66868;42.708;23.404;2023-03-23T12:06:36;7.35;;;5.25;;
77701;SDS011;66868;42.708;23.404;2023-03-23T12:09:21;6.07;;;5.68;;
77701;SDS011;66868;42.708;23.404;2023-03-23T12:11:58;6.05;;;5.57;;
77701;SDS011;66868;42.708;23.404;2023-03-23T12:14:42;6.22;;;5.57;;
77701;SDS011;66868;42.708;23.404;2023-03-23T12:31:17;5.55;;;5.22;;
77701;SDS011;66868;42.708;23.404;2023-03-23T12:34:07;6.68;;;5.90;;
77701;SDS011;66868;42.708;23.404;2023-03-23T12:42:12;5.55;;;5.25;;
77701;SDS011;66868;42.708;23.404;2023-03-23T12:44:48;9.25;;;5.18;;
77701;SDS011;66868;42.708;23.404;2023-03-23T12:50:23;5.43;;;5.13;;
77701;SDS011;66868;42.708;23.404;2023-03-23T12:55:47;5.55;;;5.22;;
77701;SDS011;66868;42.708;23.404;2023-03-23T12:58:19;5.85;;;5.38;;
77701;SDS011;66868;42.708;23.404;2023-03-23T13:00:54;4.82;;;4.43;;
77701;SDS011;66868;42.708;23.404;2023-03-23T13:08:51;4.57;;;4.20;;
77701;SDS011;66868;42.708;23.404;2023-03-23T13:11:26;5.25;;;4.75;;
77701;SDS011;66868;42.708;23.404;2023-03-23T13:13:58;4.55;;;4.30;;
77701;SDS011;66868;42.708;23.404;2023-03-23T13:19:41;6.85;;;4.00;;
77701;SDS011;66868;42.708;23.404;2023-03-23T13:22:39;4.25;;;4.05;;
77701;SDS011;66868;42.708;23.404;2023-03-23T13:25:10;4.22;;;3.80;;
77701;SDS011;66868;42.708;23.404;2023-03-23T13:27:40;4.18;;;4.00;;
77701;SDS011;66868;42.708;23.404;2023-03-23T13:30:17;4.50;;;4.10;;
77701;SDS011;66868;42.708;23.404;2023-03-23T13:32:49;4.20;;;3.95;;
77701;SDS011;66868;42.708;23.404;2023-03-23T13:35:16;4.43;;;3.97;;
77701;SDS011;66868;42.708;23.404;2023-03-23T13:37:46;4.03;;;3.83;;
77701;SDS011;66868;42.708;23.404;2023-03-23T13:42:53;3.80;;;3.70;;
77701;SDS011;66868;42.708;23.404;2023-03-23T13:45:35;4.20;;;3.95;;
77701;SDS011;66868;42.708;23.404;2023-03-23T13:48:19;4.40;;;4.15;;
77701;SDS011;66868;42.708;23.404;2023-03-23T13:50:57;3.90;;;3.65;;
77701;SDS011;66868;42.708;23.404;2023-03-23T13:53:28;4.30;;;4.10;;
77701;SDS011;66868;42.708;23.404;2023-03-23T13:56:05;3.95;;;3.78;;
77701;SDS011;66868;42.708;23.404;2023-03-23T13:58:45;4.45;;;3.88;;
77701;SDS011;66868;42.708;23.404;2023-03-23T14:01:16;4.63;;;3.80;;
77701;SDS011;66868;42.708;23.404;2023-03-23T14:03:48;3.83;;;3.60;;
77701;SDS011;66868;42.708;23.404;2023-03-23T14:06:21;4.60;;;4.28;;
77701;SDS011;66868;42.708;23.404;2023-03-23T14:08:50;4.25;;;3.97;;
77701;SDS011;66868;42.708;23.404;2023-03-23T14:11:25;3.83;;;3.63;;
77701;SDS011;66868;42.708;23.404;2023-03-23T14:16:22;4.20;;;4.10;;
77701;SDS011;66868;42.708;23.404;2023-03-23T14:18:56;3.70;;;3.60;;
77701;SDS011;66868;42.708;23.404;2023-03-23T14:21:31;4.13;;;3.90;;
77701;SDS011;66868;42.708;23.404;2023-03-23T14:24:04;3.65;;;3.47;;
77701;SDS011;66868;42.708;23.404;2023-03-23T14:26:34;3.67;;;3.58;;
77701;SDS011;66868;42.708;23.404;2023-03-23T14:29:01;3.92;;;3.63;;
77701;SDS011;66868;42.708;23.404;2023-03-23T14:31:28;3.78;;;3.67;;
77701;SDS011;66868;42.708;23.404;2023-03-23T14:33:55;3.75;;;3.65;;
77701;SDS011;66868;42.708;23.404;2023-03-23T14:36:28;7.57;;;4.07;;
77701;SDS011;66868;42.708;23.404;2023-03-23T14:39:17;4.20;;;3.85;;
77701;SDS011;66868;42.708;23.404;2023-03-23T14:41:47;4.60;;;4.20;;
77701;SDS011;66868;42.708;23.404;2023-03-23T14:44:16;3.65;;;3.55;;
77701;SDS011;66868;42.708;23.404;2023-03-23T14:46:44;4.10;;;3.80;;
77701;SDS011;66868;42.708;23.404;2023-03-23T14:49:11;5.95;;;4.13;;
77701;SDS011;66868;42.708;23.404;2023-03-23T14:51:52;4.00;;;3.80;;
77701;SDS011;66868;42.708;23.404;2023-03-23T14:54:23;4.30;;;4.10;;
77701;SDS011;66868;42.708;23.404;2023-03-23T14:56:50;4.57;;;4.30;;
77701;SDS011;66868;42.708;23.404;2023-03-23T14:59:16;4.68;;;4.28;;
77701;SDS011;66868;42.708;23.404;2023-03-23T15:01:42;8.23;;;3.63;;
77701;SDS011;66868;42.708;23.404;2023-03-23T15:06:43;8.90;;;4.65;;
77701;SDS011;66868;42.708;23.404;2023-03-23T15:09:15;4.63;;;4.32;;
77701;SDS011;66868;42.708;23.404;2023-03-23T15:12:02;4.15;;;3.85;;
77701;SDS011;66868;42.708;23.404;2023-03-23T15:14:30;6.68;;;4.10;;
77701;SDS011;66868;42.708;23.404;2023-03-23T15:17:00;4.72;;;4.32;;
77701;SDS011;66868;42.708;23.404;2023-03-23T15:19:27;10.10;;;4.75;;
77701;SDS011;66868;42.708;23.404;2023-03-23T15:24:50;5.38;;;4.63;;
77701;SDS011;66868;42.708;23.404;2023-03-23T15:29:57;5.32;;;4.30;;
77701;SDS011;66868;42.708;23.404;2023-03-23T15:32:29;4.43;;;4.18;;
77701;SDS011;66868;42.708;23.404;2023-03-23T15:35:03;4.20;;;4.00;;
77701;SDS011;66868;42.708;23.404;2023-03-23T15:37:38;4.85;;;4.45;;
77701;SDS011;66868;42.708;23.404;2023-03-23T15:40:13;4.35;;;4.07;;
77701;SDS011;66868;42.708;23.404;2023-03-23T15:42:41;15.05;;;8.05;;
77701;SDS011;66868;42.708;23.404;2023-03-23T15:47:36;6.38;;;5.75;;
77701;SDS011;66868;42.708;23.404;2023-03-23T15:52:37;5.50;;;5.10;;
77701;SDS011;66868;42.708;23.404;2023-03-23T15:55:03;40.53;;;11.27;;
77701;SDS011;66868;42.708;23.404;2023-03-23T15:57:52;8.77;;;5.13;;
77701;SDS011;66868;42.708;23.404;2023-03-23T16:00:19;27.30;;;5.72;;
77701;SDS011;66868;42.708;23.404;2023-03-23T16:02:46;9.98;;;4.70;;
77701;SDS011;66868;42.708;23.404;2023-03-23T16:05:17;106.82;;;11.95;;
77701;SDS011;66868;42.708;23.404;2023-03-23T16:07:42;8.38;;;4.75;;
77701;SDS011;66868;42.708;23.404;2023-03-23T16:10:14;5.15;;;4.82;;
77701;SDS011;66868;42.708;23.404;2023-03-23T16:12:42;5.78;;;5.35;;
77701;SDS011;66868;42.708;23.404;2023-03-23T16:15:07;5.53;;;5.07;;
77701;SDS011;66868;42.708;23.404;2023-03-23T16:17:33;29.60;;;6.47;;